Time;durP1;ratioP1;P1;durP2;ratioP2;P2;SDS_P1;SDS_P2;PMS_P1;PMS_P2;Temp;Humidity;BMP_temperature;BMP_pressure;BME280_temperature;BME280_humidity;BME280_pressure;Samples;Min_cycle;Max_cycle;Signal;HPM_P1;HPM_P2
2024/03/07 05:52:12;;;;;;;;;;;;;;;-0.08;78.43;100833.03;111360;1248;22548;-54
2024/03/07 05:55:29;;;;;;;;;;;;;;;-0.08;78.59;100834.79;111964;1247;22463;-54
2024/03/07 05:57:56;;;;;;;;;;;;;;;-0.08;78.27;100835.80;110027;1245;22520;-57
2024/03/07 06:00:34;;;;;;;;;;;;;;;-0.08;78.15;100837.17;112019;1250;23179;-58
2024/03/07 06:03:04;;;;;;;;;;;;;;;-0.07;78.41;100833.95;110889;1250;22468;-57
2024/03/07 06:05:50;;;;;;;;;;;;;;;-0.08;77.95;100835.11;111488;1250;23089;-58
2024/03/07 06:16:32;;;;;;;;;;;;;;;0.04;77.94;100833.99;111285;1250;22567;-57
2024/03/07 06:19:15;;;;;;;;;;;;;;;0.09;77.95;100831.86;111143;1250;22474;-58
2024/03/07 06:22:32;;;;;;;;;;;;;;;0.14;77.74;100830.73;111605;1250;22689;-54
2024/03/07 06:50:35;;;;;;;;;;;;;;;0.65;75.28;100838.06;113126;1245;23127;-55
2024/03/07 06:53:39;;;;;;;;;;;;;;;0.67;75.06;100842.10;113040;1247;22454;-56
2024/03/07 06:56:47;;;;;;;;;;;;;;;0.69;74.75;100847.02;112716;1248;23091;-58
2024/03/07 07:04:25;;;;;;;;;;;;;;;0.87;74.64;100850.27;105069;1248;10137943;-59
2024/03/07 07:15:37;;;;;;;;;;;;;;;1.21;73.67;100850.17;113123;1245;23186;-55
2024/03/07 07:18:11;;;;;;;;;;;;;;;1.30;73.12;100851.97;112929;1247;22386;-55
2024/03/07 07:21:10;;;;;;;;;;;;;;;1.40;72.62;100850.00;112865;1248;22397;-57
2024/03/07 07:31:48;;;;;;;;;;;;;;;1.67;71.15;100852.42;112720;1248;22378;-61
2024/03/07 07:35:24;;;;;;;;;;;;;;;1.74;70.86;100850.83;112874;1248;22434;-58
2024/03/07 07:38:12;;;;;;;;;;;;;;;1.79;70.52;100851.39;112810;1247;22372;-61
2024/03/07 07:40:49;;;;;;;;;;;;;;;1.84;70.31;100847.84;112712;1248;22416;-60
2024/03/07 07:43:48;;;;;;;;;;;;;;;1.91;70.30;100850.36;112735;1248;22395;-55
2024/03/07 07:46:50;;;;;;;;;;;;;;;1.94;70.11;100851.89;113016;1248;22405;-61
2024/03/07 07:56:53;;;;;;;;;;;;;;;2.00;69.22;100851.11;113111;1245;22514;-62
2024/03/07 07:59:21;;;;;;;;;;;;;;;1.94;69.23;100853.93;112960;1248;22397;-60
2024/03/07 08:02:11;;;;;;;;;;;;;;;1.87;69.44;100856.77;112810;1248;22467;-62
2024/03/07 08:09:16;;;;;;;;;;;;;;;1.90;69.54;100857.89;112750;1248;22827;-60
2024/03/07 08:11:52;;;;;;;;;;;;;;;1.95;69.54;100859.68;112873;1249;22984;-58
2024/03/07 08:14:29;;;;;;;;;;;;;;;2.02;69.45;100860.33;112730;1249;22398;-58
2024/03/07 08:16:59;;;;;;;;;;;;;;;2.13;69.43;100864.91;112540;1249;22414;-62
2024/03/07 08:19:40;;;;;;;;;;;;;;;2.21;68.94;100859.41;112659;1249;22865;-63
2024/03/07 08:22:26;;;;;;;;;;;;;;;2.26;68.81;100863.25;112531;1249;22346;-61
2024/03/07 08:25:21;;;;;;;;;;;;;;;2.28;68.37;100863.00;112840;1249;22410;-63
2024/03/07 08:28:16;;;;;;;;;;;;;;;2.25;68.41;100860.94;112694;1249;22342;-62
2024/03/07 08:31:26;;;;;;;;;;;;;;;2.29;68.54;100857.70;112842;1249;22377;-57
2024/03/07 08:34:29;;;;;;;;;;;;;;;2.47;68.38;100860.17;112707;1249;23225;-59
2024/03/07 08:42:16;;;;;;;;;;;;;;;2.71;66.90;100860.95;112887;1249;22839;-59
2024/03/07 08:45:52;;;;;;;;;;;;;;;2.74;66.49;100861.27;112926;1242;22384;-62
2024/03/07 08:48:33;;;;;;;;;;;;;;;2.77;66.31;100862.23;112692;1249;22421;-57
2024/03/07 08:55:35;;;;;;;;;;;;;;;2.78;65.57;100867.80;112793;1249;22431;-62
2024/03/07 08:58:21;;;;;;;;;;;;;;;2.75;65.72;100864.77;112765;1249;22357;-60
2024/03/07 09:01:12;;;;;;;;;;;;;;;2.81;65.42;100868.27;112773;1249;22376;-64
2024/03/07 09:04:33;;;;;;;;;;;;;;;2.80;65.21;100868.94;112425;1255;22426;-63
2024/03/07 09:08:04;;;;;;;;;;;;;;;2.82;65.24;100870.01;112884;1249;23146;-64
2024/03/07 09:10:44;;;;;;;;;;;;;;;2.87;65.16;100871.28;112350;1249;22405;-61
2024/03/07 09:13:26;;;;;;;;;;;;;;;2.94;64.88;100873.29;112502;1249;22874;-62
2024/03/07 09:15:57;;;;;;;;;;;;;;;3.04;64.84;100878.31;112639;1248;22382;-62
2024/03/07 09:33:42;;;;;;;;;;;;;;;3.34;63.03;100873.95;112739;1249;22441;-48
2024/03/07 09:36:11;;;;;;;;;;;;;;;3.49;62.68;100876.77;112683;1249;22435;-53
2024/03/07 09:38:39;;;;;;;;;;;;;;;3.59;62.33;100869.91;112606;1248;22426;-55
2024/03/07 09:41:07;;;;;;;;;;;;;;;3.60;61.72;100874.78;112670;1249;23033;-49
2024/03/07 09:43:38;;;;;;;;;;;;;;;3.58;61.75;100870.39;112660;1249;23783;-51
2024/03/07 09:46:08;;;;;;;;;;;;;;;3.64;61.44;100867.52;112700;1249;22401;-50
2024/03/07 09:48:36;;;;;;;;;;;;;;;3.80;61.45;100869.13;112659;1249;22437;-52
2024/03/07 09:51:05;;;;;;;;;;;;;;;3.95;60.96;100860.35;112789;1249;23217;-58
2024/03/07 09:53:32;;;;;;;;;;;;;;;4.04;60.12;100862.92;112709;1249;22453;-48
2024/03/07 09:56:00;;;;;;;;;;;;;;;4.11;60.25;100865.57;112607;1249;22433;-56
2024/03/07 09:58:27;;;;;;;;;;;;;;;4.25;59.43;100869.54;112837;1248;22393;-54
2024/03/07 10:01:02;;;;;;;;;;;;;;;4.27;58.64;100867.70;112777;1249;23400;-59
2024/03/07 10:04:52;;;;;;;;;;;;;;;4.33;58.31;100867.56;112685;1248;23189;-58
2024/03/07 10:08:58;;;;;;;;;;;;;;;4.49;58.05;100864.83;112677;1249;23302;-60
2024/03/07 10:11:35;;;;;;;;;;;;;;;4.47;57.51;100867.70;112413;1249;22419;-60
2024/03/07 10:14:07;;;;;;;;;;;;;;;4.51;57.39;100868.18;112752;1243;22589;-60
2024/03/07 10:16:49;;;;;;;;;;;;;;;4.54;57.05;100866.04;112756;1249;22374;-59
2024/03/07 10:20:01;;;;;;;;;;;;;;;4.47;57.07;100869.23;112657;1249;22415;-58
2024/03/07 10:23:46;;;;;;;;;;;;;;;4.55;57.05;100863.82;112785;1249;23155;-60
2024/03/07 10:27:34;;;;;;;;;;;;;;;4.95;56.56;100863.04;112539;1249;22383;-56
2024/03/07 10:30:44;;;;;;;;;;;;;;;5.17;55.48;100859.91;112598;1249;22489;-60
2024/03/07 10:33:27;;;;;;;;;;;;;;;5.33;54.96;100860.41;112658;1249;22373;-61
2024/03/07 10:36:54;;;;;;;;;;;;;;;5.60;53.80;100861.89;112791;1248;22384;-56
2024/03/07 10:39:50;;;;;;;;;;;;;;;5.92;52.78;100864.55;112796;1241;22517;-60
2024/03/07 10:42:35;;;;;;;;;;;;;;;6.31;51.54;100853.99;112821;1249;22714;-61
2024/03/07 10:45:22;;;;;;;;;;;;;;;6.69;50.15;100856.89;112751;1249;22498;-57
2024/03/07 10:47:56;;;;;;;;;;;;;;;6.58;48.57;100854.02;112788;1249;23016;-58
2024/03/07 10:50:44;;;;;;;;;;;;;;;6.39;49.37;100852.52;112758;1249;22393;-57
2024/03/07 10:53:23;;;;;;;;;;;;;;;6.64;48.92;100851.55;112899;1249;23076;-60
2024/03/07 10:56:16;;;;;;;;;;;;;;;6.92;48.34;100846.88;112844;1249;23325;-56
2024/03/07 10:59:02;;;;;;;;;;;;;;;7.06;46.65;100841.63;112765;1249;22582;-56
2024/03/07 11:01:49;;;;;;;;;;;;;;;7.17;46.86;100841.02;112768;1249;22352;-59
2024/03/07 11:04:35;;;;;;;;;;;;;;;7.48;46.74;100837.20;112721;1247;22411;-57
2024/03/07 11:07:14;;;;;;;;;;;;;;;7.89;45.62;100830.55;112520;1249;22420;-58
2024/03/07 11:10:20;;;;;;;;;;;;;;;8.01;44.24;100832.17;112318;1245;22882;-61
2024/03/07 11:21:40;;;;;;;;;;;;;;;9.35;42.66;100816.96;112779;1249;23607;-60
2024/03/07 11:35:53;;;;;;;;;;;;;;;11.26;38.48;100804.47;112787;1249;22475;-57
2024/03/07 11:39:24;;;;;;;;;;;;;;;11.34;37.22;100805.55;112692;1249;22985;-60
2024/03/07 11:41:57;;;;;;;;;;;;;;;10.93;37.20;100803.56;112747;1249;22336;-58
2024/03/07 11:44:25;;;;;;;;;;;;;;;10.67;37.38;100798.85;112770;1249;23532;-55
2024/03/07 11:46:53;;;;;;;;;;;;;;;10.26;38.06;100801.45;112834;1249;22422;-50
2024/03/07 11:49:20;;;;;;;;;;;;;;;10.08;38.26;100797.60;112729;1249;22472;-59
2024/03/07 11:51:48;;;;;;;;;;;;;;;9.94;38.38;100802.69;112705;1249;22370;-57
2024/03/07 11:54:21;;;;;;;;;;;;;;;9.82;38.58;100805.35;112688;1249;22386;-50
2024/03/07 11:56:51;;;;;;;;;;;;;;;9.74;38.53;100804.55;112585;1249;22425;-54
2024/03/07 11:59:18;;;;;;;;;;;;;;;9.51;38.87;100799.92;112678;1249;23177;-49
2024/03/07 12:02:34;;;;;;;;;;;;;;;9.32;38.91;100801.43;112720;1249;23047;-58
2024/03/07 12:05:40;;;;;;;;;;;;;;;9.17;39.15;100797.73;112847;1249;22424;-57
2024/03/07 12:08:12;;;;;;;;;;;;;;;8.92;38.98;100796.34;112841;1245;22364;-57
2024/03/07 12:10:43;;;;;;;;;;;;;;;8.55;39.63;100796.47;112696;1249;23170;-59
2024/03/07 12:13:27;;;;;;;;;;;;;;;8.32;39.95;100794.34;112580;1249;22366;-58
2024/03/07 12:16:11;;;;;;;;;;;;;;;8.01;40.34;100798.11;112640;1237;22719;-59
2024/03/07 12:18:54;;;;;;;;;;;;;;;7.75;41.27;100798.32;112717;1249;22435;-61
2024/03/07 12:21:35;;;;;;;;;;;;;;;7.84;41.27;100798.66;112644;1249;22375;-61
2024/03/07 12:24:16;;;;;;;;;;;;;;;7.78;41.32;100795.08;112694;1249;22414;-62
2024/03/07 12:27:06;;;;;;;;;;;;;;;7.80;41.03;100791.48;112702;1249;23038;-59
2024/03/07 12:29:35;;;;;;;;;;;;;;;7.76;41.35;100790.16;112751;1249;22423;-65
2024/03/07 12:32:13;;;;;;;;;;;;;;;7.84;41.48;100785.64;112968;1249;22427;-61
2024/03/07 12:35:12;;;;;;;;;;;;;;;8.12;41.05;100783.89;112813;1249;23210;-61
2024/03/07 12:37:56;;;;;;;;;;;;;;;8.36;41.04;100782.92;112813;1249;22319;-59
2024/03/07 12:40:37;;;;;;;;;;;;;;;8.64;40.23;100780.11;112859;1249;22427;-57
2024/03/07 12:43:26;;;;;;;;;;;;;;;8.87;39.60;100779.56;112804;1249;22333;-61
2024/03/07 12:45:58;;;;;;;;;;;;;;;8.71;39.12;100782.81;112828;1248;22402;-56
2024/03/07 12:48:31;;;;;;;;;;;;;;;8.30;39.46;100781.96;112778;1249;22407;-58
2024/03/07 12:51:02;;;;;;;;;;;;;;;7.94;40.49;100786.35;112789;1249;23127;-57
2024/03/07 12:53:31;;;;;;;;;;;;;;;7.79;40.69;100787.63;112849;1249;22373;-58
2024/03/07 12:56:03;;;;;;;;;;;;;;;7.68;40.71;100788.98;112771;1249;22334;-56
2024/03/07 13:00:16;;;;;;;;;;;;;;;7.89;40.16;100785.91;112837;1249;22406;-56
2024/03/07 13:02:46;;;;;;;;;;;;;;;7.77;40.03;100785.69;112718;1249;22372;-54
2024/03/07 13:05:25;;;;;;;;;;;;;;;7.43;40.41;100789.52;112693;1249;22507;-55
2024/03/07 13:08:02;;;;;;;;;;;;;;;6.99;41.13;100788.59;112724;1249;23298;-55
2024/03/07 13:10:51;;;;;;;;;;;;;;;6.77;42.15;100792.05;112674;1249;22411;-54
2024/03/07 13:13:26;;;;;;;;;;;;;;;6.80;42.08;100793.67;112754;1249;22483;-54
2024/03/07 13:20:16;;;;;;;;;;;;;;;7.40;41.15;100792.23;112729;1246;22476;-60
2024/03/07 13:22:49;;;;;;;;;;;;;;;7.49;40.86;100793.30;112871;1249;22369;-61
2024/03/07 13:25:19;;;;;;;;;;;;;;;7.78;40.40;100794.73;112907;1249;22415;-57
2024/03/07 13:27:52;;;;;;;;;;;;;;;8.14;39.95;100792.45;112808;1249;22371;-56
2024/03/07 13:30:38;;;;;;;;;;;;;;;8.38;39.22;100787.65;112960;1249;22436;-58
2024/03/07 13:33:32;;;;;;;;;;;;;;;8.09;39.13;100790.95;112881;1243;22445;-60
2024/03/07 13:36:01;;;;;;;;;;;;;;;7.87;39.49;100791.42;112753;1249;22378;-58
2024/03/07 13:38:38;;;;;;;;;;;;;;;7.93;39.78;100788.58;112710;1249;22534;-58
2024/03/07 13:41:07;;;;;;;;;;;;;;;7.85;39.39;100790.17;112887;1249;23291;-55
2024/03/07 13:43:47;;;;;;;;;;;;;;;7.47;39.92;100792.04;112841;1249;22442;-59
2024/03/07 13:46:17;;;;;;;;;;;;;;;7.11;40.68;100797.69;112956;1249;23056;-59
2024/03/07 13:48:46;;;;;;;;;;;;;;;7.13;40.72;100799.98;112776;1240;22425;-55
2024/03/07 13:51:16;;;;;;;;;;;;;;;7.33;40.44;100796.09;112959;1249;22399;-59
2024/03/07 13:54:26;;;;;;;;;;;;;;;7.62;40.06;100795.45;112991;1249;22402;-59
2024/03/07 13:58:14;;;;;;;;;;;;;;;7.94;39.56;100792.60;112800;1249;23279;-59
2024/03/07 14:01:53;;;;;;;;;;;;;;;7.91;38.84;100792.71;112808;1248;23077;-59
2024/03/07 14:04:49;;;;;;;;;;;;;;;7.48;39.31;100794.30;112956;1249;22502;-55
2024/03/07 14:07:21;;;;;;;;;;;;;;;7.17;40.03;100799.03;112788;1249;23211;-55
2024/03/07 14:15:12;;;;;;;;;;;;;;;7.68;39.74;100793.83;112878;1249;22431;-60
2024/03/07 14:27:10;;;;;;;;;;;;;;;7.66;39.34;100790.51;112833;1249;23162;-56
2024/03/07 14:30:01;;;;;;;;;;;;;;;7.71;39.42;100795.12;112814;1249;22403;-60
2024/03/07 14:32:30;;;;;;;;;;;;;;;7.85;39.22;100796.59;112852;1249;23276;-60
2024/03/07 14:35:26;;;;;;;;;;;;;;;7.89;38.85;100798.60;112772;1249;23140;-56
2024/03/07 14:37:58;;;;;;;;;;;;;;;7.84;38.99;100793.79;112774;1245;23132;-56
2024/03/07 14:40:39;;;;;;;;;;;;;;;7.82;38.99;100795.50;112898;1249;22934;-56
2024/03/07 14:43:08;;;;;;;;;;;;;;;7.89;39.01;100792.52;112789;1249;22373;-59
2024/03/07 14:45:37;;;;;;;;;;;;;;;7.85;38.95;100792.08;112803;1249;22606;-59
2024/03/07 14:48:09;;;;;;;;;;;;;;;7.66;39.05;100792.08;112841;1249;22432;-59
2024/03/07 14:50:41;;;;;;;;;;;;;;;7.54;39.24;100792.52;112815;1249;22942;-56
2024/03/07 14:53:21;;;;;;;;;;;;;;;7.51;39.37;100795.41;112907;1249;23226;-59
2024/03/07 14:55:52;;;;;;;;;;;;;;;7.39;39.59;100802.11;112723;1249;22354;-55
2024/03/07 14:58:20;;;;;;;;;;;;;;;7.45;39.73;100797.02;112684;1249;22401;-59
2024/03/07 15:00:53;;;;;;;;;;;;;;;7.50;39.85;100791.73;112650;1249;22407;-55
2024/03/07 15:03:28;;;;;;;;;;;;;;;7.59;40.01;100793.31;112891;1249;22457;-59
2024/03/07 15:05:56;;;;;;;;;;;;;;;7.61;39.59;100791.95;112740;1249;22352;-57
2024/03/07 15:08:27;;;;;;;;;;;;;;;7.37;39.56;100797.04;112827;1249;22448;-58
2024/03/07 15:10:58;;;;;;;;;;;;;;;6.99;40.10;100800.89;112772;1249;23165;-58
2024/03/07 15:13:26;;;;;;;;;;;;;;;6.50;41.01;100798.88;112830;1249;23493;-55
2024/03/07 15:15:57;;;;;;;;;;;;;;;6.00;42.22;100802.95;112679;1249;23158;-59
